Time;durP1;ratioP1;P1;durP2;ratioP2;P2;SDS_P1;SDS_P2;PMS_P1;PMS_P2;Temp;Humidity;BMP_temperature;BMP_pressure;BME280_temperature;BME280_humidity;BME280_pressure;Samples;Min_cycle;Max_cycle;Signal;HPM_P1;HPM_P2
2023/03/12 00:00:03;;;;;;;;;;;;;;;12.50;66.45;100790.63;1272628;23;634;-66
2023/03/12 00:00:53;;;;;;;;;;;;;;;12.47;65.75;100785.50;1271759;23;629;-66
2023/03/12 00:01:44;;;;;;;;;;;;;;;12.46;65.96;100783.78;1272224;23;646;-66
2023/03/12 00:02:34;;;;;;;;;;;;;;;12.45;65.62;100788.28;1271719;23;633;-66
2023/03/12 00:03:24;;;;;;;;;;;;;;;12.44;65.75;100786.56;1271995;23;610;-66
2023/03/12 00:04:15;;;;;;;;;;;;;;;12.44;66.05;100786.56;1272843;23;670;-67
2023/03/12 00:05:05;;;;;;;;;;;;;;;12.45;66.34;100790.94;1272847;23;618;-67
2023/03/12 00:05:56;;;;;;;;;;;;;;;12.42;66.20;100783.16;1272861;23;666;-66
2023/03/12 00:06:46;;;;;;;;;;;;;;;12.44;66.09;100785.72;1274793;23;670;-66
2023/03/12 00:07:37;;;;;;;;;;;;;;;12.47;65.49;100780.16;1273047;23;661;-66
2023/03/12 00:08:27;;;;;;;;;;;;;;;12.45;65.55;100782.06;1272037;23;685;-66
2023/03/12 00:09:18;;;;;;;;;;;;;;;12.46;65.51;100778.44;1272937;23;637;-65
2023/03/12 00:10:08;;;;;;;;;;;;;;;12.45;65.64;100777.59;1272624;23;673;-66
2023/03/12 00:10:59;;;;;;;;;;;;;;;12.46;65.47;100773.94;1274227;23;673;-66
2023/03/12 00:11:49;;;;;;;;;;;;;;;12.45;66.31;100766.03;1271281;23;634;-66
2023/03/12 00:12:39;;;;;;;;;;;;;;;12.45;65.81;100776.72;1273097;23;661;-66
2023/03/12 00:13:30;;;;;;;;;;;;;;;12.42;65.61;100768.94;1273375;23;642;-66
2023/03/12 00:14:20;;;;;;;;;;;;;;;12.43;65.52;100771.50;1272620;23;662;-66
2023/03/12 00:15:11;;;;;;;;;;;;;;;12.43;66.38;100767.97;1272104;23;688;-66
2023/03/12 00:16:01;;;;;;;;;;;;;;;12.45;66.18;100776.72;1272577;23;650;-66
2023/03/12 00:16:52;;;;;;;;;;;;;;;12.43;66.00;100770.63;1272702;23;657;-66
2023/03/12 00:17:42;;;;;;;;;;;;;;;12.42;66.00;100771.59;1272502;23;603;-66
2023/03/12 00:18:32;;;;;;;;;;;;;;;12.41;66.54;100775.25;1272746;23;681;-66
2023/03/12 00:19:23;;;;;;;;;;;;;;;12.42;65.95;100776.94;1272663;23;1920;-66
2023/03/12 00:20:13;;;;;;;;;;;;;;;12.39;66.48;100767.34;1272651;23;594;-66
2023/03/12 00:21:04;;;;;;;;;;;;;;;12.40;66.23;100769.03;1272014;23;645;-66
2023/03/12 00:21:54;;;;;;;;;;;;;;;12.39;66.46;100767.34;1272629;23;685;-66
2023/03/12 00:22:45;;;;;;;;;;;;;;;12.39;65.56;100766.47;1272652;23;638;-66
2023/03/12 00:23:35;;;;;;;;;;;;;;;12.40;65.47;100768.19;1272625;23;724;-66
2023/03/12 00:24:25;;;;;;;;;;;;;;;12.41;66.16;100767.22;1272658;23;614;-66
2023/03/12 00:25:16;;;;;;;;;;;;;;;12.40;66.29;100770.88;1272109;23;618;-66
2023/03/12 00:26:06;;;;;;;;;;;;;;;12.39;65.73;100771.81;1272435;23;685;-66
2023/03/12 00:26:57;;;;;;;;;;;;;;;12.39;65.93;100774.50;1272772;23;665;-66
2023/03/12 00:27:47;;;;;;;;;;;;;;;12.38;66.47;100770.13;1271301;23;646;-66
2023/03/12 00:28:38;;;;;;;;;;;;;;;12.37;65.80;100769.25;1273044;23;732;-67
2023/03/12 00:29:28;;;;;;;;;;;;;;;12.38;65.64;100770.13;1273445;23;633;-66
2023/03/12 00:30:19;;;;;;;;;;;;;;;12.37;65.83;100763.06;1271894;23;1105;-66
2023/03/12 00:31:09;;;;;;;;;;;;;;;12.36;66.04;100769.41;1272515;23;665;-66
2023/03/12 00:31:59;;;;;;;;;;;;;;;12.36;66.41;100764.06;1272526;23;606;-66
2023/03/12 00:32:50;;;;;;;;;;;;;;;12.35;66.60;100762.34;1272754;23;666;-66
2023/03/12 00:33:40;;;;;;;;;;;;;;;12.35;65.92;100757.00;1272458;23;614;-66
2023/03/12 00:34:31;;;;;;;;;;;;;;;12.35;66.21;100765.88;1272670;23;685;-66
2023/03/12 00:35:21;;;;;;;;;;;;;;;12.34;65.71;100763.31;1274290;23;658;-66
2023/03/12 00:36:12;;;;;;;;;;;;;;;12.34;66.66;100763.31;1272582;23;606;-67
2023/03/12 00:37:02;;;;;;;;;;;;;;;12.37;66.49;100763.06;1274287;23;634;-66
2023/03/12 00:37:52;;;;;;;;;;;;;;;12.36;65.84;100761.38;1272697;23;798;-66
2023/03/12 00:38:43;;;;;;;;;;;;;;;12.37;65.62;100763.06;1274299;23;692;-66
2023/03/12 00:39:33;;;;;;;;;;;;;;;12.38;65.82;100764.78;1272371;23;1952;-66
2023/03/12 00:40:24;;;;;;;;;;;;;;;12.37;66.12;100763.06;1272636;23;662;-66
2023/03/12 00:41:14;;;;;;;;;;;;;;;12.35;65.67;100760.53;1271619;23;656;-66
2023/03/12 00:42:05;;;;;;;;;;;;;;;12.34;66.41;100763.31;1272636;23;685;-66
2023/03/12 00:42:55;;;;;;;;;;;;;;;12.35;66.69;100767.69;1271701;23;668;-66
2023/03/12 00:43:45;;;;;;;;;;;;;;;12.33;66.51;100766.94;1271829;23;637;-66
2023/03/12 00:44:36;;;;;;;;;;;;;;;12.32;65.83;100770.59;1271641;23;692;-66
2023/03/12 00:45:26;;;;;;;;;;;;;;;12.31;66.29;100767.06;1272481;23;668;-66
2023/03/12 00:46:17;;;;;;;;;;;;;;;12.32;66.41;100759.91;1273483;23;676;-66
2023/03/12 00:47:07;;;;;;;;;;;;;;;12.31;66.60;100759.03;1271601;23;613;-66
2023/03/12 00:47:58;;;;;;;;;;;;;;;12.30;66.55;100756.47;1272633;23;649;-66
2023/03/12 00:48:48;;;;;;;;;;;;;;;12.32;66.34;100762.56;1272724;23;622;-66
2023/03/12 00:49:38;;;;;;;;;;;;;;;12.32;65.95;100743.88;1272491;23;638;-67
2023/03/12 00:50:29;;;;;;;;;;;;;;;12.31;65.98;100752.84;1272038;23;653;-67
2023/03/12 00:51:19;;;;;;;;;;;;;;;12.32;65.75;100749.22;1272449;23;665;-67
2023/03/12 00:52:10;;;;;;;;;;;;;;;12.31;66.64;100753.69;1272677;23;689;-66
2023/03/12 00:53:00;;;;;;;;;;;;;;;12.31;66.18;100747.50;1274305;23;692;-66
2023/03/12 00:53:51;;;;;;;;;;;;;;;12.30;66.23;100748.47;1272595;23;692;-66
2023/03/12 00:54:41;;;;;;;;;;;;;;;12.30;66.45;100740.44;1271090;23;657;-66
2023/03/12 00:55:32;;;;;;;;;;;;;;;12.30;66.30;100743.13;1273080;23;657;-66
2023/03/12 00:56:22;;;;;;;;;;;;;;;12.29;66.00;100733.41;1273414;23;613;-66
2023/03/12 00:57:12;;;;;;;;;;;;;;;12.30;66.46;100730.63;1272531;23;602;-66
2023/03/12 00:58:03;;;;;;;;;;;;;;;12.29;66.72;100730.72;1272675;23;665;-66
2023/03/12 00:58:53;;;;;;;;;;;;;;;12.27;65.84;100730.84;1271672;23;621;-66
2023/03/12 00:59:44;;;;;;;;;;;;;;;12.26;66.74;100729.13;1272060;23;622;-66
2023/03/12 01:00:34;;;;;;;;;;;;;;;12.29;66.12;100728.06;1274171;23;618;-66
2023/03/12 01:01:26;;;;;;;;;;;;;;;12.28;66.00;100729.03;1272531;23;593;-66
2023/03/12 01:02:16;;;;;;;;;;;;;;;12.28;66.55;100726.34;1272521;23;657;-66
2023/03/12 01:03:07;;;;;;;;;;;;;;;12.30;65.65;100732.44;1272589;23;669;-66
2023/03/12 01:03:58;;;;;;;;;;;;;;;12.27;66.41;100725.50;1272473;23;602;-67
2023/03/12 01:04:49;;;;;;;;;;;;;;;12.25;66.53;100722.09;1271717;23;720;-66
2023/03/12 01:05:39;;;;;;;;;;;;;;;12.26;65.83;100722.94;1272709;23;681;-66
2023/03/12 01:06:30;;;;;;;;;;;;;;;12.25;66.12;100722.09;1271813;23;665;-66
2023/03/12 01:07:20;;;;;;;;;;;;;;;12.25;65.83;100722.09;1272515;23;610;-66
2023/03/12 01:08:11;;;;;;;;;;;;;;;12.25;66.75;100721.22;1272633;23;677;-66
2023/03/12 01:09:01;;;;;;;;;;;;;;;12.24;66.26;100722.19;1272679;23;672;-66
2023/03/12 01:09:51;;;;;;;;;;;;;;;12.23;66.04;100718.66;1272565;23;611;-66
2023/03/12 01:10:42;;;;;;;;;;;;;;;12.24;66.62;100724.88;1272656;23;666;-66
2023/03/12 01:11:32;;;;;;;;;;;;;;;12.25;65.95;100715.88;1274211;23;617;-66
2023/03/12 01:12:23;;;;;;;;;;;;;;;12.23;65.92;100726.69;1272642;23;665;-66
2023/03/12 01:13:13;;;;;;;;;;;;;;;12.23;66.83;100724.00;1272621;23;630;-66
2023/03/12 01:14:04;;;;;;;;;;;;;;;12.23;66.46;100718.66;1271706;23;677;-66
2023/03/12 01:14:54;;;;;;;;;;;;;;;12.24;66.34;100720.38;1272688;23;626;-66
2023/03/12 01:15:44;;;;;;;;;;;;;;;12.23;66.58;100725.81;1272507;23;670;-66
2023/03/12 01:16:35;;;;;;;;;;;;;;;12.24;66.95;100727.53;1271980;23;630;-66
2023/03/12 01:17:25;;;;;;;;;;;;;;;12.23;66.40;100728.50;1272334;23;641;-67
2023/03/12 01:18:16;;;;;;;;;;;;;;;12.23;65.97;100731.16;1272619;23;672;-66
2023/03/12 01:19:06;;;;;;;;;;;;;;;12.21;66.79;100727.75;1273394;23;664;-67
2023/03/12 01:19:57;;;;;;;;;;;;;;;12.20;66.56;100729.56;1272517;23;634;-67
2023/03/12 01:20:47;;;;;;;;;;;;;;;12.22;66.54;100733.00;1272592;23;633;-66
2023/03/12 01:21:38;;;;;;;;;;;;;;;12.21;66.62;100730.44;1272504;23;668;-67
2023/03/12 01:22:28;;;;;;;;;;;;;;;12.22;65.97;100737.47;1273284;23;660;-67
2023/03/12 01:23:19;;;;;;;;;;;;;;;12.21;66.17;100733.09;1272352;23;1150;-66
2023/03/12 01:24:09;;;;;;;;;;;;;;;12.20;66.86;100734.06;1272515;23;633;-66
2023/03/12 01:24:59;;;;;;;;;;;;;;;12.18;66.60;100729.69;1272548;23;622;-66
2023/03/12 01:25:51;;;;;;;;;;;;;;;12.21;66.81;100730.44;1272561;23;626;-66
2023/03/12 01:26:41;;;;;;;;;;;;;;;12.20;65.98;100726.03;1272689;23;665;-66
2023/03/12 01:27:31;;;;;;;;;;;;;;;12.20;65.90;100734.06;1272379;23;603;-67
2023/03/12 01:28:22;;;;;;;;;;;;;;;12.21;66.14;100725.09;1272589;23;670;-66
2023/03/12 01:29:12;;;;;;;;;;;;;;;12.20;66.89;100728.72;1272527;23;658;-66
2023/03/12 01:30:03;;;;;;;;;;;;;;;12.19;66.75;100725.19;1274179;23;711;-66
2023/03/12 01:30:53;;;;;;;;;;;;;;;12.18;66.59;100725.34;1273321;23;685;-66
2023/03/12 01:31:44;;;;;;;;;;;;;;;12.19;65.95;100722.53;1272597;23;646;-67
2023/03/12 01:32:34;;;;;;;;;;;;;;;12.20;66.23;100728.72;1271869;23;585;-66
2023/03/12 01:33:24;;;;;;;;;;;;;;;12.20;66.66;100726.03;1272462;23;662;-66
2023/03/12 01:34:15;;;;;;;;;;;;;;;12.18;66.01;100720.00;1272493;23;669;-66
2023/03/12 01:35:05;;;;;;;;;;;;;;;12.18;66.80;100727.00;1274232;23;642;-66
2023/03/12 01:35:56;;;;;;;;;;;;;;;12.18;66.07;100728.00;1272489;23;654;-67
2023/03/12 01:36:46;;;;;;;;;;;;;;;12.18;66.53;100721.66;1271863;23;613;-67
2023/03/12 01:37:37;;;;;;;;;;;;;;;12.18;66.62;100727.00;1271830;23;649;-67
2023/03/12 01:38:27;;;;;;;;;;;;;;;12.18;65.99;100725.34;1272627;23;641;-67
2023/03/12 01:39:17;;;;;;;;;;;;;;;12.18;66.28;100722.66;1272427;23;1901;-67
2023/03/12 01:40:08;;;;;;;;;;;;;;;12.20;66.99;100723.38;1272528;23;625;-66
2023/03/12 01:40:58;;;;;;;;;;;;;;;12.20;66.83;100718.03;1274252;23;610;-66
2023/03/12 01:41:49;;;;;;;;;;;;;;;12.18;66.81;100715.50;1271841;23;622;-66
2023/03/12 01:42:39;;;;;;;;;;;;;;;12.18;66.06;100706.63;1272447;23;653;-67
2023/03/12 01:43:30;;;;;;;;;;;;;;;12.18;66.40;100711.97;1272050;23;700;-67
2023/03/12 01:44:20;;;;;;;;;;;;;;;12.18;66.17;100712.84;1272562;23;689;-66
2023/03/12 01:45:10;;;;;;;;;;;;;;;12.18;66.68;100714.66;1274313;23;673;-66
2023/03/12 01:46:01;;;;;;;;;;;;;;;12.18;66.38;100709.31;1272564;23;653;-66
2023/03/12 01:46:52;;;;;;;;;;;;;;;12.18;66.23;100711.97;1272633;23;661;-66
2023/03/12 01:47:42;;;;;;;;;;;;;;;12.15;66.40;100711.22;1274410;23;605;-66
2023/03/12 01:48:33;;;;;;;;;;;;;;;12.15;66.06;100713.91;1272223;23;610;-66
2023/03/12 01:49:23;;;;;;;;;;;;;;;12.15;66.73;100716.56;1273948;23;657;-66
2023/03/12 01:50:14;;;;;;;;;;;;;;;12.13;66.53;100714.97;1271500;23;680;-66
2023/03/12 01:51:04;;;;;;;;;;;;;;;12.12;66.56;100711.47;1271561;23;633;-66
2023/03/12 01:51:55;;;;;;;;;;;;;;;12.14;67.00;100708.69;1272566;23;630;-66
2023/03/12 01:52:45;;;;;;;;;;;;;;;12.15;66.96;100711.22;1272425;23;630;-66
2023/03/12 01:53:36;;;;;;;;;;;;;;;12.15;66.52;100705.91;1271400;23;634;-66
2023/03/12 01:54:26;;;;;;;;;;;;;;;12.16;66.87;100707.59;1272391;23;657;-66
2023/03/12 01:55:16;;;;;;;;;;;;;;;12.16;66.11;100709.41;1272509;23;677;-66
2023/03/12 01:56:07;;;;;;;;;;;;;;;12.15;66.72;100705.03;1272462;23;693;-66
2023/03/12 01:56:57;;;;;;;;;;;;;;;12.15;66.93;100703.22;1272108;23;622;-66
2023/03/12 01:57:48;;;;;;;;;;;;;;;12.13;66.18;100693.59;1271813;23;692;-66
2023/03/12 01:58:38;;;;;;;;;;;;;;;12.12;66.23;100695.44;1274289;23;606;-66
2023/03/12 01:59:29;;;;;;;;;;;;;;;12.15;66.32;100692.53;1272107;23;1908;-66
2023/03/12 02:00:19;;;;;;;;;;;;;;;12.14;66.25;100698.84;1272617;23;642;-66
2023/03/12 02:01:09;;;;;;;;;;;;;;;12.12;66.83;100692.75;1271691;23;630;-66
2023/03/12 02:02:00;;;;;;;;;;;;;;;12.11;66.59;100691.06;1272550;23;633;-66
2023/03/12 02:02:50;;;;;;;;;;;;;;;12.13;66.86;100688.28;1271015;23;646;-66
2023/03/12 02:03:41;;;;;;;;;;;;;;;12.12;66.65;100699.91;1272915;23;689;-66
2023/03/12 02:04:31;;;;;;;;;;;;;;;12.11;66.72;100684.84;1273400;23;638;-66
2023/03/12 02:05:21;;;;;;;;;;;;;;;12.12;66.79;100695.44;1272272;23;698;-66
2023/03/12 02:06:12;;;;;;;;;;;;;;;12.11;66.95;100691.06;1272572;23;630;-66
2023/03/12 02:07:02;;;;;;;;;;;;;;;12.12;66.46;100681.22;1273899;23;649;-67
2023/03/12 02:07:53;;;;;;;;;;;;;;;12.11;66.91;100684.84;1271235;23;712;-66
2023/03/12 02:08:44;;;;;;;;;;;;;;;12.12;66.26;100679.41;1272944;23;654;-67
2023/03/12 02:09:34;;;;;;;;;;;;;;;12.12;66.57;100683.88;1273287;23;650;-66
2023/03/12 02:10:25;;;;;;;;;;;;;;;12.11;66.80;100683.03;1272408;23;654;-67
2023/03/12 02:11:15;;;;;;;;;;;;;;;12.11;66.53;100671.50;1272568;23;634;-66
2023/03/12 02:12:06;;;;;;;;;;;;;;;12.09;66.35;100676.94;1272680;23;685;-66
2023/03/12 02:12:56;;;;;;;;;;;;;;;12.11;66.88;100666.16;1272828;23;712;-66
2023/03/12 02:13:47;;;;;;;;;;;;;;;12.11;67.04;100669.69;1272811;23;626;-66
2023/03/12 02:14:37;;;;;;;;;;;;;;;12.11;66.25;100669.69;1272962;23;645;-67
2023/03/12 02:15:27;;;;;;;;;;;;;;;12.11;67.13;100669.69;1274633;23;669;-66
2023/03/12 02:16:18;;;;;;;;;;;;;;;12.12;66.25;100668.72;1272853;23;661;-66
2023/03/12 02:17:08;;;;;;;;;;;;;;;12.11;67.03;100668.81;1273760;23;696;-66
2023/03/12 02:17:59;;;;;;;;;;;;;;;12.11;66.51;100666.16;1272871;23;622;-67
2023/03/12 02:18:49;;;;;;;;;;;;;;;12.11;66.83;100664.34;1272900;23;622;-67
2023/03/12 02:19:40;;;;;;;;;;;;;;;12.09;66.82;100662.75;1272509;23;1877;-67
2023/03/12 02:20:30;;;;;;;;;;;;;;;12.07;66.57;100662.84;1272734;23;642;-67
2023/03/12 02:21:20;;;;;;;;;;;;;;;12.08;66.99;100667.22;1272499;23;649;-67
2023/03/12 02:22:11;;;;;;;;;;;;;;;12.09;67.17;100668.09;1272646;23;700;-67
2023/03/12 02:23:01;;;;;;;;;;;;;;;12.08;67.02;100674.38;1274374;23;1195;-66
2023/03/12 02:23:52;;;;;;;;;;;;;;;12.11;67.21;100675.03;1272888;23;618;-67
2023/03/12 02:24:42;;;;;;;;;;;;;;;12.10;66.50;100673.31;1272981;23;659;-67
2023/03/12 02:25:33;;;;;;;;;;;;;;;12.11;66.25;100669.69;1272673;23;657;-67
2023/03/12 02:26:23;;;;;;;;;;;;;;;12.13;66.35;100670.44;1272191;23;638;-67
2023/03/12 02:27:14;;;;;;;;;;;;;;;12.13;67.05;100680.25;1272585;23;638;-67
2023/03/12 02:28:04;;;;;;;;;;;;;;;12.11;66.71;100667.00;1272682;23;646;-67
2023/03/12 02:28:55;;;;;;;;;;;;;;;12.10;66.91;100670.66;1274671;23;657;-67
2023/03/12 02:29:45;;;;;;;;;;;;;;;12.10;66.93;100665.31;1272899;23;657;-67
2023/03/12 02:30:35;;;;;;;;;;;;;;;12.11;67.08;100666.16;1274453;23;665;-67
2023/03/12 02:31:26;;;;;;;;;;;;;;;12.10;67.09;100657.28;1272973;23;689;-67
2023/03/12 02:32:16;;;;;;;;;;;;;;;12.08;67.10;100653.88;1272695;23;637;-66
2023/03/12 02:33:07;;;;;;;;;;;;;;;12.08;66.34;100639.66;1272946;23;669;-67
2023/03/12 02:33:59;;;;;;;;;;;;;;;12.08;66.45;100643.19;1272729;23;610;-67
2023/03/12 02:34:49;;;;;;;;;;;;;;;12.05;66.97;100643.41;1271762;23;601;-67
2023/03/12 02:35:40;;;;;;;;;;;;;;;12.07;66.95;100645.97;1272586;23;672;-67
2023/03/12 02:36:30;;;;;;;;;;;;;;;12.06;66.28;100633.59;1272431;23;591;-67
2023/03/12 02:37:21;;;;;;;;;;;;;;;12.05;67.05;100643.41;1272578;23;665;-67
2023/03/12 02:38:11;;;;;;;;;;;;;;;12.06;67.27;100634.44;1272998;23;625;-67
2023/03/12 02:39:02;;;;;;;;;;;;;;;12.05;67.25;100635.41;1274607;23;630;-67
2023/03/12 02:39:52;;;;;;;;;;;;;;;12.07;66.94;100635.28;1272960;23;625;-67
2023/03/12 02:40:43;;;;;;;;;;;;;;;12.05;66.74;100627.38;1271738;23;786;-67
2023/03/12 02:41:33;;;;;;;;;;;;;;;12.06;67.18;100630.91;1271310;23;621;-67
2023/03/12 02:42:23;;;;;;;;;;;;;;;12.07;66.39;100629.94;1274497;23;666;-67
2023/03/12 02:43:14;;;;;;;;;;;;;;;12.07;66.46;100630.81;1272561;23;700;-67
2023/03/12 02:44:04;;;;;;;;;;;;;;;12.07;67.24;100625.47;1274793;23;649;-67
2023/03/12 02:44:55;;;;;;;;;;;;;;;12.04;67.14;100628.34;1272506;23;630;-67
2023/03/12 02:45:45;;;;;;;;;;;;;;;12.05;67.13;100624.72;1274238;23;689;-67
2023/03/12 02:46:36;;;;;;;;;;;;;;;12.05;66.65;100626.53;1274575;23;633;-67
2023/03/12 02:47:26;;;;;;;;;;;;;;;12.02;66.68;100619.59;1272605;23;641;-67
2023/03/12 02:48:16;;;;;;;;;;;;;;;12.02;67.13;100622.28;1274367;23;645;-67
2023/03/12 02:49:07;;;;;;;;;;;;;;;12.03;66.46;100621.31;1272580;23;641;-67
2023/03/12 02:49:58;;;;;;;;;;;;;;;12.03;66.69;100620.44;1271750;23;681;-67
2023/03/12 02:50:48;;;;;;;;;;;;;;;12.02;66.51;100624.09;1272682;23;637;-66
2023/03/12 02:51:39;;;;;;;;;;;;;;;12.01;66.62;100619.72;1272517;23;626;-66
2023/03/12 02:52:34;;;;;;;;;;;;;;;12.02;66.51;100618.75;1272467;23;638;-66
2023/03/12 02:53:24;;;;;;;;;;;;;;;12.03;66.35;100615.97;1271556;23;677;-66
2023/03/12 02:54:15;;;;;;;;;;;;;;;12.02;67.17;100616.06;1271797;23;665;-67
2023/03/12 02:55:05;;;;;;;;;;;;;;;12.00;66.49;100610.84;1272603;23;630;-66
2023/03/12 02:55:56;;;;;;;;;;;;;;;12.00;67.11;100604.69;1271154;23;780;-66
2023/03/12 02:56:46;;;;;;;;;;;;;;;12.02;66.38;100608.91;1274418;23;688;-67
2023/03/12 02:57:37;;;;;;;;;;;;;;;12.00;67.36;100608.19;1271740;23;640;-66
2023/03/12 02:58:27;;;;;;;;;;;;;;;11.98;66.82;100602.13;1272919;23;672;-67
2023/03/12 02:59:19;;;;;;;;;;;;;;;11.99;66.72;100600.31;1271743;23;1888;-67
2023/03/12 03:00:13;;;;;;;;;;;;;;;11.99;66.40;100601.16;1272099;23;627;-66
2023/03/12 03:01:03;;;;;;;;;;;;;;;11.98;67.36;100602.13;1274276;23;676;-66
2023/03/12 03:01:54;;;;;;;;;;;;;;;11.97;67.24;100604.91;1272616;23;689;-66
2023/03/12 03:02:44;;;;;;;;;;;;;;;12.00;66.68;100607.34;1273379;23;767;-66
2023/03/12 03:03:35;;;;;;;;;;;;;;;12.00;66.92;100600.16;1271810;23;953;-66
2023/03/12 03:04:25;;;;;;;;;;;;;;;11.99;66.39;100598.50;1271526;23;689;-66
2023/03/12 03:05:16;;;;;;;;;;;;;;;12.00;67.37;100600.16;1273114;23;626;-66
2023/03/12 03:06:06;;;;;;;;;;;;;;;12.01;67.07;100595.69;1273273;23;684;-66
2023/03/12 03:06:57;;;;;;;;;;;;;;;11.99;67.26;100593.16;1272581;23;658;-66
2023/03/12 03:07:47;;;;;;;;;;;;;;;11.99;67.11;100592.28;1272466;23;685;-66
2023/03/12 03:08:37;;;;;;;;;;;;;;;11.99;66.85;100593.16;1274330;23;703;-66
2023/03/12 03:09:28;;;;;;;;;;;;;;;12.00;66.96;100596.69;1271711;23;637;-66
2023/03/12 03:10:18;;;;;;;;;;;;;;;11.99;67.17;100593.16;1270976;23;661;-66
2023/03/12 03:11:09;;;;;;;;;;;;;;;11.98;66.78;100588.78;1272425;23;673;-66
2023/03/12 03:11:59;;;;;;;;;;;;;;;11.99;67.38;100587.81;1272694;23;677;-66
2023/03/12 03:12:50;;;;;;;;;;;;;;;11.99;67.28;100585.13;1271522;23;646;-66
2023/03/12 03:13:40;;;;;;;;;;;;;;;12.00;67.31;100591.34;1271559;23;553;-66
2023/03/12 03:14:31;;;;;;;;;;;;;;;11.97;66.42;100589.75;1272727;23;610;-66
2023/03/12 03:15:21;;;;;;;;;;;;;;;11.96;66.41;100582.69;1272557;23;653;-66
2023/03/12 03:16:12;;;;;;;;;;;;;;;11.99;67.32;100590.47;1274287;23;621;-66
2023/03/12 03:17:02;;;;;;;;;;;;;;;11.99;67.01;100590.47;1273590;23;672;-66
2023/03/12 03:17:53;;;;;;;;;;;;;;;11.97;66.36;100584.41;1271709;23;637;-66
2023/03/12 03:18:43;;;;;;;;;;;;;;;11.96;67.03;100584.50;1273005;23;688;-67
2023/03/12 03:19:34;;;;;;;;;;;;;;;11.93;66.68;100574.91;1273233;23;1920;-67
2023/03/12 03:20:25;;;;;;;;;;;;;;;11.95;66.95;100572.13;1272560;23;697;-66
2023/03/12 03:21:15;;;;;;;;;;;;;;;11.95;67.26;100574.78;1272420;23;641;-67
2023/03/12 03:22:06;;;;;;;;;;;;;;;11.97;67.36;100570.19;1271634;23;650;-67
2023/03/12 03:22:57;;;;;;;;;;;;;;;11.96;66.46;100561.34;1273106;23;1189;-67
2023/03/12 03:23:47;;;;;;;;;;;;;;;11.95;66.83;100559.63;1273293;23;665;-66
2023/03/12 03:24:38;;;;;;;;;;;;;;;11.97;66.61;100554.16;1273059;23;610;-66
2023/03/12 03:25:28;;;;;;;;;;;;;;;11.96;66.84;100553.31;1272575;23;633;-66
2023/03/12 03:26:18;;;;;;;;;;;;;;;11.97;66.52;100556.84;1271689;23;724;-66
2023/03/12 03:27:09;;;;;;;;;;;;;;;12.00;66.84;100557.44;1272556;23;707;-67
2023/03/12 03:27:59;;;;;;;;;;;;;;;11.99;67.30;100546.91;1271841;23;649;-67
2023/03/12 03:28:50;;;;;;;;;;;;;;;11.96;66.39;100553.31;1272405;23;629;-67
2023/03/12 03:29:40;;;;;;;;;;;;;;;11.97;66.53;100548.81;1274433;23;677;-67
2023/03/12 03:30:31;;;;;;;;;;;;;;;11.97;66.48;100549.69;1274223;23;610;-67
2023/03/12 03:31:22;;;;;;;;;;;;;;;11.95;66.97;100543.59;1271688;23;653;-67
2023/03/12 03:32:12;;;;;;;;;;;;;;;11.97;66.81;100552.34;1272589;23;670;-67
2023/03/12 03:33:03;;;;;;;;;;;;;;;11.99;67.07;100555.75;1272447;23;673;-67
2023/03/12 03:33:53;;;;;;;;;;;;;;;11.98;66.94;100547.88;1272407;23;606;-67
2023/03/12 03:34:44;;;;;;;;;;;;;;;11.94;67.10;100552.56;1272438;23;642;-67
2023/03/12 03:35:34;;;;;;;;;;;;;;;11.93;66.56;100550.03;1272713;23;650;-66
2023/03/12 03:36:25;;;;;;;;;;;;;;;11.94;67.35;100541.91;1272499;23;622;-67
2023/03/12 03:37:15;;;;;;;;;;;;;;;11.96;67.28;100547.97;1272636;23;940;-67
2023/03/12 03:38:06;;;;;;;;;;;;;;;11.97;66.81;100535.47;1272448;23;717;-67
2023/03/12 03:38:56;;;;;;;;;;;;;;;11.97;66.81;100536.34;1271475;23;728;-67
2023/03/12 03:39:47;;;;;;;;;;;;;;;11.97;67.09;100539.00;1272262;23;1909;-67
2023/03/12 03:40:37;;;;;;;;;;;;;;;11.96;67.46;100531.97;1272655;23;622;-67
2023/03/12 03:41:28;;;;;;;;;;;;;;;11.96;66.51;100533.78;1272373;23;625;-67
2023/03/12 03:42:18;;;;;;;;;;;;;;;11.96;67.08;100529.28;1272706;23;637;-67
2023/03/12 03:43:08;;;;;;;;;;;;;;;11.93;67.09;100524.16;1272640;23;668;-67
2023/03/12 03:43:59;;;;;;;;;;;;;;;11.94;67.33;100525.88;1272505;23;669;-67
2023/03/12 03:44:49;;;;;;;;;;;;;;;11.93;66.90;100524.16;1272634;23;751;-67
2023/03/12 03:45:40;;;;;;;;;;;;;;;11.92;67.41;100530.47;1271628;23;610;-67
2023/03/12 03:46:30;;;;;;;;;;;;;;;11.90;67.32;100521.72;1272197;23;611;-67
2023/03/12 03:47:21;;;;;;;;;;;;;;;11.92;67.25;100526.94;1272668;23;645;-67
2023/03/12 03:48:11;;;;;;;;;;;;;;;11.93;66.70;100534.00;1272813;23;607;-66
2023/03/12 03:49:02;;;;;;;;;;;;;;;11.94;66.90;100539.22;1272719;23;598;-67
2023/03/12 03:49:52;;;;;;;;;;;;;;;11.94;67.28;100531.22;1272766;23;662;-67
2023/03/12 03:50:42;;;;;;;;;;;;;;;11.93;66.86;100534.00;1272428;23;618;-66
2023/03/12 03:51:33;;;;;;;;;;;;;;;11.91;67.56;100533.25;1272450;23;615;-67
2023/03/12 03:52:23;;;;;;;;;;;;;;;11.91;67.24;100539.44;1274204;23;696;-67
2023/03/12 03:53:14;;;;;;;;;;;;;;;11.91;67.24;100538.59;1272449;23;622;-67
2023/03/12 03:54:04;;;;;;;;;;;;;;;11.89;67.33;100533.38;1271943;23;684;-67
2023/03/12 03:54:55;;;;;;;;;;;;;;;11.91;67.11;100535.94;1271202;23;865;-67
2023/03/12 03:55:46;;;;;;;;;;;;;;;11.90;66.63;100535.06;1272875;23;617;-67
2023/03/12 03:56:36;;;;;;;;;;;;;;;11.90;66.66;100539.56;1273291;23;685;-67
2023/03/12 03:57:27;;;;;;;;;;;;;;;11.90;66.72;100543.09;1272558;23;614;-67
2023/03/12 03:58:17;;;;;;;;;;;;;;;11.92;67.57;100534.97;1271620;23;673;-67
2023/03/12 03:59:07;;;;;;;;;;;;;;;11.92;66.76;100542.97;1272819;23;638;-67
2023/03/12 03:59:59;;;;;;;;;;;;;;;11.90;66.68;100542.22;1273273;23;661;-67
2023/03/12 04:00:49;;;;;;;;;;;;;;;11.89;66.86;100538.72;1271805;23;674;-66
2023/03/12 04:01:40;;;;;;;;;;;;;;;11.90;66.63;100537.75;1274336;23;650;-67
2023/03/12 04:02:30;;;;;;;;;;;;;;;11.91;66.77;100539.44;1272778;23;630;-67
2023/03/12 04:03:20;;;;;;;;;;;;;;;11.92;67.47;100542.97;1272580;23;646;-66
2023/03/12 04:04:11;;;;;;;;;;;;;;;11.89;66.71;100533.38;1271690;23;668;-67
2023/03/12 04:05:01;;;;;;;;;;;;;;;11.89;66.95;100536.03;1272555;23;658;-67
2023/03/12 04:05:52;;;;;;;;;;;;;;;11.89;67.41;100524.50;1271108;23;658;-66
2023/03/12 04:06:42;;;;;;;;;;;;;;;11.88;67.28;100522.81;1273001;23;681;-66
2023/03/12 04:07:33;;;;;;;;;;;;;;;11.88;66.55;100523.66;1273213;23;610;-66
2023/03/12 04:08:23;;;;;;;;;;;;;;;11.88;67.54;100521.00;1272162;23;606;-66
2023/03/12 04:09:13;;;;;;;;;;;;;;;11.88;67.18;100521.00;1273558;23;700;-67
2023/03/12 04:10:04;;;;;;;;;;;;;;;11.88;66.65;100512.13;1272573;23;563;-66
2023/03/12 04:10:54;;;;;;;;;;;;;;;11.86;67.52;100525.59;1272744;23;665;-67
2023/03/12 04:11:45;;;;;;;;;;;;;;;11.86;66.95;100516.72;1272667;23;630;-66
2023/03/12 04:12:35;;;;;;;;;;;;;;;11.87;66.71;100523.78;1272771;23;674;-67
2023/03/12 04:13:26;;;;;;;;;;;;;;;11.88;67.42;100520.13;1272541;23;668;-66
2023/03/12 04:14:16;;;;;;;;;;;;;;;11.86;67.64;100517.56;1272631;23;778;-66
2023/03/12 04:15:06;;;;;;;;;;;;;;;11.87;67.71;100513.94;1273718;23;744;-67
2023/03/12 04:15:57;;;;;;;;;;;;;;;11.87;67.10;100518.44;1272944;23;705;-66
2023/03/12 04:16:47;;;;;;;;;;;;;;;11.86;67.07;100516.72;1272742;23;673;-67
2023/03/12 04:17:38;;;;;;;;;;;;;;;11.86;67.53;100522.91;1272548;23;681;-66
2023/03/12 04:18:28;;;;;;;;;;;;;;;11.86;66.63;100530.06;1272546;23;696;-66
2023/03/12 04:19:18;;;;;;;;;;;;;;;11.85;67.35;100523.03;1274966;23;743;-66
2023/03/12 04:20:10;;;;;;;;;;;;;;;11.87;66.67;100521.09;1272539;23;830;-66
2023/03/12 04:21:00;;;;;;;;;;;;;;;11.87;66.97;100527.28;1271917;23;693;-66
2023/03/12 04:21:50;;;;;;;;;;;;;;;11.87;67.29;100518.44;1272636;23;854;-66
2023/03/12 04:22:41;;;;;;;;;;;;;;;11.87;67.55;100527.28;1272130;23;654;-66
2023/03/12 04:23:31;;;;;;;;;;;;;;;11.87;66.68;100518.44;1266458;23;638;-66
2023/03/12 04:24:22;;;;;;;;;;;;;;;11.85;67.61;100521.22;1265758;23;673;-67
2023/03/12 04:25:12;;;;;;;;;;;;;;;11.84;66.87;100516.84;1267530;23;662;-66
2023/03/12 04:26:03;;;;;;;;;;;;;;;11.85;66.76;100517.69;1267235;23;681;-66